sensor_id;sensor_type;location;lat;lon;timestamp;P1;durP1;ratioP1;P2;durP2;ratioP2
64684;SDS011;51109;47.414;18.954;2023-06-26T00:02:18;9.00;;;8.07;;
64684;SDS011;51109;47.414;18.954;2023-06-26T00:04:44;11.90;;;9.13;;
64684;SDS011;51109;47.414;18.954;2023-06-26T00:07:10;13.23;;;10.00;;
64684;SDS011;51109;47.414;18.954;2023-06-26T00:09:37;11.68;;;9.02;;
64684;SDS011;51109;47.414;18.954;2023-06-26T00:12:03;10.88;;;8.80;;
64684;SDS011;51109;47.414;18.954;2023-06-26T00:14:29;11.80;;;9.00;;
64684;SDS011;51109;47.414;18.954;2023-06-26T00:16:54;9.82;;;8.65;;
64684;SDS011;51109;47.414;18.954;2023-06-26T00:19:20;11.10;;;8.32;;
64684;SDS011;51109;47.414;18.954;2023-06-26T00:21:46;11.60;;;8.57;;
64684;SDS011;51109;47.414;18.954;2023-06-26T00:24:13;9.63;;;8.40;;
64684;SDS011;51109;47.414;18.954;2023-06-26T00:26:40;11.45;;;8.80;;
64684;SDS011;51109;47.414;18.954;2023-06-26T00:29:06;11.00;;;8.68;;
64684;SDS011;51109;47.414;18.954;2023-06-26T00:31:31;14.13;;;9.70;;
64684;SDS011;51109;47.414;18.954;2023-06-26T00:33:57;11.45;;;8.90;;
64684;SDS011;51109;47.414;18.954;2023-06-26T00:36:23;10.05;;;8.27;;
64684;SDS011;51109;47.414;18.954;2023-06-26T00:38:49;10.48;;;8.88;;
64684;SDS011;51109;47.414;18.954;2023-06-26T00:41:15;12.32;;;9.15;;
64684;SDS011;51109;47.414;18.954;2023-06-26T00:43:41;12.65;;;9.30;;
64684;SDS011;51109;47.414;18.954;2023-06-26T00:46:10;11.65;;;8.20;;
64684;SDS011;51109;47.414;18.954;2023-06-26T00:48:38;12.48;;;8.90;;
64684;SDS011;51109;47.414;18.954;2023-06-26T00:51:05;11.38;;;8.10;;
64684;SDS011;51109;47.414;18.954;2023-06-26T00:53:32;14.07;;;8.75;;
64684;SDS011;51109;47.414;18.954;2023-06-26T00:55:59;9.95;;;8.77;;
64684;SDS011;51109;47.414;18.954;2023-06-26T00:58:26;12.07;;;8.43;;
64684;SDS011;51109;47.414;18.954;2023-06-26T01:00:52;13.10;;;9.40;;
64684;SDS011;51109;47.414;18.954;2023-06-26T01:03:18;10.07;;;8.43;;
64684;SDS011;51109;47.414;18.954;2023-06-26T01:05:45;11.77;;;8.57;;
64684;SDS011;51109;47.414;18.954;2023-06-26T01:08:15;15.00;;;9.20;;
64684;SDS011;51109;47.414;18.954;2023-06-26T01:10:41;13.18;;;8.77;;
64684;SDS011;51109;47.414;18.954;2023-06-26T01:13:08;11.60;;;8.45;;
64684;SDS011;51109;47.414;18.954;2023-06-26T01:15:34;11.40;;;8.80;;
64684;SDS011;51109;47.414;18.954;2023-06-26T01:18:00;12.75;;;8.60;;
64684;SDS011;51109;47.414;18.954;2023-06-26T01:20:32;10.60;;;8.20;;
64684;SDS011;51109;47.414;18.954;2023-06-26T01:23:20;10.10;;;8.63;;
64684;SDS011;51109;47.414;18.954;2023-06-26T01:25:53;11.48;;;8.45;;
64684;SDS011;51109;47.414;18.954;2023-06-26T01:28:21;11.90;;;8.40;;
64684;SDS011;51109;47.414;18.954;2023-06-26T01:30:49;11.73;;;8.68;;
64684;SDS011;51109;47.414;18.954;2023-06-26T01:33:16;15.02;;;8.52;;
64684;SDS011;51109;47.414;18.954;2023-06-26T01:35:42;10.32;;;8.48;;
64684;SDS011;51109;47.414;18.954;2023-06-26T01:38:16;11.30;;;8.90;;
64684;SDS011;51109;47.414;18.954;2023-06-26T01:40:43;9.38;;;8.43;;
64684;SDS011;51109;47.414;18.954;2023-06-26T01:43:20;10.20;;;8.25;;
64684;SDS011;51109;47.414;18.954;2023-06-26T01:45:50;11.25;;;8.45;;
64684;SDS011;51109;47.414;18.954;2023-06-26T01:48:19;8.95;;;8.05;;
64684;SDS011;51109;47.414;18.954;2023-06-26T01:50:51;11.23;;;8.63;;
64684;SDS011;51109;47.414;18.954;2023-06-26T01:53:19;11.25;;;8.23;;
64684;SDS011;51109;47.414;18.954;2023-06-26T01:55:59;10.88;;;8.63;;
64684;SDS011;51109;47.414;18.954;2023-06-26T01:58:29;12.40;;;8.75;;
64684;SDS011;51109;47.414;18.954;2023-06-26T02:00:56;11.40;;;9.05;;
64684;SDS011;51109;47.414;18.954;2023-06-26T02:03:22;10.63;;;8.75;;
64684;SDS011;51109;47.414;18.954;2023-06-26T02:05:49;11.13;;;8.98;;
64684;SDS011;51109;47.414;18.954;2023-06-26T02:08:16;9.57;;;8.57;;
64684;SDS011;51109;47.414;18.954;2023-06-26T02:10:42;11.13;;;8.75;;
64684;SDS011;51109;47.414;18.954;2023-06-26T02:13:08;12.85;;;8.60;;
64684;SDS011;51109;47.414;18.954;2023-06-26T02:15:34;10.93;;;8.48;;
64684;SDS011;51109;47.414;18.954;2023-06-26T02:17:59;13.70;;;9.50;;
64684;SDS011;51109;47.414;18.954;2023-06-26T02:20:25;12.73;;;8.75;;
64684;SDS011;51109;47.414;18.954;2023-06-26T02:22:51;14.75;;;9.07;;
64684;SDS011;51109;47.414;18.954;2023-06-26T02:25:17;13.55;;;9.63;;
64684;SDS011;51109;47.414;18.954;2023-06-26T02:27:43;12.77;;;9.60;;
64684;SDS011;51109;47.414;18.954;2023-06-26T02:30:09;13.07;;;9.63;;
64684;SDS011;51109;47.414;18.954;2023-06-26T02:32:35;11.80;;;9.90;;
64684;SDS011;51109;47.414;18.954;2023-06-26T02:35:01;12.02;;;9.32;;
64684;SDS011;51109;47.414;18.954;2023-06-26T02:37:27;13.05;;;9.48;;
64684;SDS011;51109;47.414;18.954;2023-06-26T02:39:53;13.45;;;9.85;;
64684;SDS011;51109;47.414;18.954;2023-06-26T02:42:19;12.48;;;10.05;;
64684;SDS011;51109;47.414;18.954;2023-06-26T02:44:45;14.45;;;9.60;;
64684;SDS011;51109;47.414;18.954;2023-06-26T02:47:11;10.52;;;8.77;;
64684;SDS011;51109;47.414;18.954;2023-06-26T02:49:36;16.70;;;9.30;;
64684;SDS011;51109;47.414;18.954;2023-06-26T02:52:02;16.42;;;9.98;;
64684;SDS011;51109;47.414;18.954;2023-06-26T02:54:28;13.68;;;9.80;;
64684;SDS011;51109;47.414;18.954;2023-06-26T02:56:54;11.80;;;9.20;;
64684;SDS011;51109;47.414;18.954;2023-06-26T02:59:20;14.00;;;9.07;;
64684;SDS011;51109;47.414;18.954;2023-06-26T03:01:46;13.48;;;9.13;;
64684;SDS011;51109;47.414;18.954;2023-06-26T03:04:12;10.10;;;8.82;;
64684;SDS011;51109;47.414;18.954;2023-06-26T03:06:38;13.93;;;9.20;;
64684;SDS011;51109;47.414;18.954;2023-06-26T03:09:03;13.25;;;9.20;;
64684;SDS011;51109;47.414;18.954;2023-06-26T03:11:29;15.27;;;10.00;;
64684;SDS011;51109;47.414;18.954;2023-06-26T03:13:55;15.55;;;9.60;;
64684;SDS011;51109;47.414;18.954;2023-06-26T03:16:21;14.23;;;9.60;;
64684;SDS011;51109;47.414;18.954;2023-06-26T03:18:47;11.80;;;9.95;;
64684;SDS011;51109;47.414;18.954;2023-06-26T03:21:13;11.35;;;9.48;;
64684;SDS011;51109;47.414;18.954;2023-06-26T03:23:39;11.52;;;8.55;;
64684;SDS011;51109;47.414;18.954;2023-06-26T03:26:06;14.43;;;8.98;;
64684;SDS011;51109;47.414;18.954;2023-06-26T03:28:32;10.30;;;9.20;;
64684;SDS011;51109;47.414;18.954;2023-06-26T03:30:58;13.40;;;9.75;;
64684;SDS011;51109;47.414;18.954;2023-06-26T03:33:24;12.98;;;9.68;;
64684;SDS011;51109;47.414;18.954;2023-06-26T03:35:50;12.70;;;9.05;;
64684;SDS011;51109;47.414;18.954;2023-06-26T03:38:16;13.93;;;10.05;;
64684;SDS011;51109;47.414;18.954;2023-06-26T03:40:41;15.52;;;9.23;;
64684;SDS011;51109;47.414;18.954;2023-06-26T03:43:07;13.55;;;9.82;;
64684;SDS011;51109;47.414;18.954;2023-06-26T03:45:33;9.52;;;8.30;;
64684;SDS011;51109;47.414;18.954;2023-06-26T03:47:59;12.88;;;9.20;;
64684;SDS011;51109;47.414;18.954;2023-06-26T03:50:25;10.80;;;9.07;;
64684;SDS011;51109;47.414;18.954;2023-06-26T03:52:50;11.38;;;9.13;;
64684;SDS011;51109;47.414;18.954;2023-06-26T03:55:17;13.82;;;9.77;;
64684;SDS011;51109;47.414;18.954;2023-06-26T03:57:43;13.60;;;9.05;;
64684;SDS011;51109;47.414;18.954;2023-06-26T04:00:09;14.63;;;9.77;;
64684;SDS011;51109;47.414;18.954;2023-06-26T04:02:37;13.07;;;10.02;;
64684;SDS011;51109;47.414;18.954;2023-06-26T04:05:04;13.73;;;9.38;;
64684;SDS011;51109;47.414;18.954;2023-06-26T04:07:30;15.15;;;9.23;;
64684;SDS011;51109;47.414;18.954;2023-06-26T04:09:56;9.48;;;8.35;;
64684;SDS011;51109;47.414;18.954;2023-06-26T04:12:23;13.05;;;8.90;;
64684;SDS011;51109;47.414;18.954;2023-06-26T04:14:48;12.70;;;9.30;;
64684;SDS011;51109;47.414;18.954;2023-06-26T04:17:14;12.25;;;8.88;;
64684;SDS011;51109;47.414;18.954;2023-06-26T04:19:40;13.43;;;9.15;;
64684;SDS011;51109;47.414;18.954;2023-06-26T04:22:06;11.52;;;8.70;;
64684;SDS011;51109;47.414;18.954;2023-06-26T04:24:32;18.13;;;10.05;;
64684;SDS011;51109;47.414;18.954;2023-06-26T04:26:57;12.70;;;8.70;;
64684;SDS011;51109;47.414;18.954;2023-06-26T04:29:24;10.75;;;8.05;;
64684;SDS011;51109;47.414;18.954;2023-06-26T04:31:52;11.70;;;8.82;;
64684;SDS011;51109;47.414;18.954;2023-06-26T04:34:22;10.93;;;8.30;;
64684;SDS011;51109;47.414;18.954;2023-06-26T04:36:52;8.77;;;7.65;;
64684;SDS011;51109;47.414;18.954;2023-06-26T04:39:18;9.30;;;7.78;;
64684;SDS011;51109;47.414;18.954;2023-06-26T04:41:44;9.85;;;7.60;;
64684;SDS011;51109;47.414;18.954;2023-06-26T04:44:10;11.20;;;8.13;;
64684;SDS011;51109;47.414;18.954;2023-06-26T04:46:37;8.73;;;6.90;;
64684;SDS011;51109;47.414;18.954;2023-06-26T04:49:09;9.90;;;7.45;;
64684;SDS011;51109;47.414;18.954;2023-06-26T04:51:35;10.70;;;7.13;;
64684;SDS011;51109;47.414;18.954;2023-06-26T04:54:07;12.18;;;7.50;;
64684;SDS011;51109;47.414;18.954;2023-06-26T04:56:34;8.75;;;7.32;;
64684;SDS011;51109;47.414;18.954;2023-06-26T04:59:00;9.40;;;7.05;;
64684;SDS011;51109;47.414;18.954;2023-06-26T05:01:26;11.45;;;7.32;;
64684;SDS011;51109;47.414;18.954;2023-06-26T05:03:57;14.93;;;6.63;;
64684;SDS011;51109;47.414;18.954;2023-06-26T05:06:26;12.90;;;8.30;;
64684;SDS011;51109;47.414;18.954;2023-06-26T05:08:51;8.50;;;6.70;;
64684;SDS011;51109;47.414;18.954;2023-06-26T05:11:17;12.73;;;7.35;;
64684;SDS011;51109;47.414;18.954;2023-06-26T05:13:43;9.98;;;6.22;;
64684;SDS011;51109;47.414;18.954;2023-06-26T05:16:09;8.32;;;6.18;;
64684;SDS011;51109;47.414;18.954;2023-06-26T05:18:35;9.98;;;6.22;;
64684;SDS011;51109;47.414;18.954;2023-06-26T05:21:02;15.73;;;8.40;;
64684;SDS011;51109;47.414;18.954;2023-06-26T05:23:30;9.15;;;6.45;;
64684;SDS011;51109;47.414;18.954;2023-06-26T05:25:57;9.38;;;6.60;;
64684;SDS011;51109;47.414;18.954;2023-06-26T05:28:23;12.00;;;6.72;;
64684;SDS011;51109;47.414;18.954;2023-06-26T05:30:53;7.57;;;5.93;;
64684;SDS011;51109;47.414;18.954;2023-06-26T05:33:21;7.03;;;5.97;;
64684;SDS011;51109;47.414;18.954;2023-06-26T05:35:51;8.73;;;6.70;;
64684;SDS011;51109;47.414;18.954;2023-06-26T05:38:18;7.45;;;6.75;;
64684;SDS011;51109;47.414;18.954;2023-06-26T05:40:45;7.93;;;6.45;;
64684;SDS011;51109;47.414;18.954;2023-06-26T05:43:11;6.72;;;6.13;;
64684;SDS011;51109;47.414;18.954;2023-06-26T05:45:37;10.30;;;6.75;;
64684;SDS011;51109;47.414;18.954;2023-06-26T05:48:03;13.98;;;7.13;;
64684;SDS011;51109;47.414;18.954;2023-06-26T05:50:29;9.65;;;6.82;;
64684;SDS011;51109;47.414;18.954;2023-06-26T05:52:55;9.93;;;6.75;;
64684;SDS011;51109;47.414;18.954;2023-06-26T05:55:22;9.77;;;7.28;;
64684;SDS011;51109;47.414;18.954;2023-06-26T05:57:48;8.20;;;6.68;;
64684;SDS011;51109;47.414;18.954;2023-06-26T06:00:16;8.07;;;6.47;;
64684;SDS011;51109;47.414;18.954;2023-06-26T06:02:42;7.53;;;6.63;;
64684;SDS011;51109;47.414;18.954;2023-06-26T06:05:08;10.00;;;6.57;;
64684;SDS011;51109;47.414;18.954;2023-06-26T06:07:35;10.38;;;6.25;;
64684;SDS011;51109;47.414;18.954;2023-06-26T06:10:01;10.75;;;6.20;;
64684;SDS011;51109;47.414;18.954;2023-06-26T06:12:28;7.57;;;6.35;;
64684;SDS011;51109;47.414;18.954;2023-06-26T06:14:55;6.65;;;5.90;;
64684;SDS011;51109;47.414;18.954;2023-06-26T06:17:21;8.07;;;6.55;;
64684;SDS011;51109;47.414;18.954;2023-06-26T06:19:47;10.98;;;7.03;;
64684;SDS011;51109;47.414;18.954;2023-06-26T06:22:13;10.20;;;7.20;;
64684;SDS011;51109;47.414;18.954;2023-06-26T06:24:39;10.88;;;6.97;;
64684;SDS011;51109;47.414;18.954;2023-06-26T06:27:04;9.45;;;6.75;;
64684;SDS011;51109;47.414;18.954;2023-06-26T06:29:30;8.40;;;7.50;;
64684;SDS011;51109;47.414;18.954;2023-06-26T06:31:56;10.52;;;6.93;;
64684;SDS011;51109;47.414;18.954;2023-06-26T06:34:22;10.43;;;7.45;;
64684;SDS011;51109;47.414;18.954;2023-06-26T06:36:48;7.78;;;6.88;;
64684;SDS011;51109;47.414;18.954;2023-06-26T06:39:15;8.93;;;6.68;;
64684;SDS011;51109;47.414;18.954;2023-06-26T06:41:41;9.88;;;7.30;;
64684;SDS011;51109;47.414;18.954;2023-06-26T06:44:07;11.13;;;8.13;;
64684;SDS011;51109;47.414;18.954;2023-06-26T06:46:33;15.45;;;7.82;;
64684;SDS011;51109;47.414;18.954;2023-06-26T06:48:59;12.30;;;7.90;;
64684;SDS011;51109;47.414;18.954;2023-06-26T06:51:25;15.07;;;9.27;;
64684;SDS011;51109;47.414;18.954;2023-06-26T06:53:51;12.38;;;7.07;;
64684;SDS011;51109;47.414;18.954;2023-06-26T06:56:17;11.05;;;7.50;;
64684;SDS011;51109;47.414;18.954;2023-06-26T06:58:43;15.48;;;7.60;;
64684;SDS011;51109;47.414;18.954;2023-06-26T07:01:11;14.45;;;8.02;;
64684;SDS011;51109;47.414;18.954;2023-06-26T07:03:37;9.75;;;7.25;;
64684;SDS011;51109;47.414;18.954;2023-06-26T07:06:03;8.50;;;6.95;;
64684;SDS011;51109;47.414;18.954;2023-06-26T07:08:29;9.20;;;7.47;;
64684;SDS011;51109;47.414;18.954;2023-06-26T07:10:55;10.23;;;6.75;;
64684;SDS011;51109;47.414;18.954;2023-06-26T07:13:24;11.07;;;7.78;;
64684;SDS011;51109;47.414;18.954;2023-06-26T07:15:50;10.18;;;7.45;;
64684;SDS011;51109;47.414;18.954;2023-06-26T07:18:16;10.15;;;7.32;;
64684;SDS011;51109;47.414;18.954;2023-06-26T07:20:42;12.38;;;7.78;;
64684;SDS011;51109;47.414;18.954;2023-06-26T07:23:08;11.00;;;8.48;;
64684;SDS011;51109;47.414;18.954;2023-06-26T07:25:34;10.70;;;8.32;;
64684;SDS011;51109;47.414;18.954;2023-06-26T07:28:00;8.27;;;7.30;;
64684;SDS011;51109;47.414;18.954;2023-06-26T07:30:26;9.02;;;7.28;;
64684;SDS011;51109;47.414;18.954;2023-06-26T07:32:52;10.98;;;7.45;;
64684;SDS011;51109;47.414;18.954;2023-06-26T07:35:18;9.88;;;6.97;;
64684;SDS011;51109;47.414;18.954;2023-06-26T07:37:44;9.93;;;7.25;;
64684;SDS011;51109;47.414;18.954;2023-06-26T07:40:10;11.63;;;7.25;;
64684;SDS011;51109;47.414;18.954;2023-06-26T07:42:36;9.25;;;7.10;;
64684;SDS011;51109;47.414;18.954;2023-06-26T07:45:02;10.05;;;7.15;;
64684;SDS011;51109;47.414;18.954;2023-06-26T07:47:35;8.00;;;6.90;;
64684;SDS011;51109;47.414;18.954;2023-06-26T07:50:04;13.27;;;7.13;;
64684;SDS011;51109;47.414;18.954;2023-06-26T07:52:31;11.23;;;6.68;;
64684;SDS011;51109;47.414;18.954;2023-06-26T07:54:57;8.20;;;7.20;;
64684;SDS011;51109;47.414;18.954;2023-06-26T07:57:23;10.80;;;6.90;;
64684;SDS011;51109;47.414;18.954;2023-06-26T07:59:49;11.52;;;6.93;;
64684;SDS011;51109;47.414;18.954;2023-06-26T08:02:15;8.80;;;7.18;;
64684;SDS011;51109;47.414;18.954;2023-06-26T08:04:41;8.40;;;6.72;;
64684;SDS011;51109;47.414;18.954;2023-06-26T08:07:07;9.52;;;6.90;;
64684;SDS011;51109;47.414;18.954;2023-06-26T08:09:33;11.95;;;7.35;;
64684;SDS011;51109;47.414;18.954;2023-06-26T08:11:59;10.95;;;7.45;;
64684;SDS011;51109;47.414;18.954;2023-06-26T08:14:25;11.23;;;7.03;;
64684;SDS011;51109;47.414;18.954;2023-06-26T08:16:51;9.20;;;7.15;;
64684;SDS011;51109;47.414;18.954;2023-06-26T08:19:17;9.95;;;7.78;;
64684;SDS011;51109;47.414;18.954;2023-06-26T08:21:43;8.20;;;7.30;;
64684;SDS011;51109;47.414;18.954;2023-06-26T08:24:10;8.88;;;6.72;;
64684;SDS011;51109;47.414;18.954;2023-06-26T08:26:38;9.20;;;6.90;;
64684;SDS011;51109;47.414;18.954;2023-06-26T08:29:04;8.98;;;6.68;;
64684;SDS011;51109;47.414;18.954;2023-06-26T08:31:33;12.10;;;7.30;;
64684;SDS011;51109;47.414;18.954;2023-06-26T08:34:00;8.88;;;7.25;;
64684;SDS011;51109;47.414;18.954;2023-06-26T08:36:31;10.23;;;6.88;;
64684;SDS011;51109;47.414;18.954;2023-06-26T08:38:57;9.70;;;7.63;;
64684;SDS011;51109;47.414;18.954;2023-06-26T08:41:23;8.50;;;6.97;;
64684;SDS011;51109;47.414;18.954;2023-06-26T08:43:49;7.97;;;6.60;;
64684;SDS011;51109;47.414;18.954;2023-06-26T08:46:17;9.77;;;6.88;;
64684;SDS011;51109;47.414;18.954;2023-06-26T08:48:54;8.60;;;7.00;;
64684;SDS011;51109;47.414;18.954;2023-06-26T08:51:21;8.32;;;7.20;;
64684;SDS011;51109;47.414;18.954;2023-06-26T08:54:00;10.40;;;7.00;;
64684;SDS011;51109;47.414;18.954;2023-06-26T08:56:28;8.82;;;6.72;;
64684;SDS011;51109;47.414;18.954;2023-06-26T08:59:00;10.30;;;7.43;;
64684;SDS011;51109;47.414;18.954;2023-06-26T09:01:27;7.10;;;6.40;;
64684;SDS011;51109;47.414;18.954;2023-06-26T09:03:53;7.43;;;6.68;;
64684;SDS011;51109;47.414;18.954;2023-06-26T09:06:19;8.65;;;6.43;;
64684;SDS011;51109;47.414;18.954;2023-06-26T09:08:45;9.43;;;7.03;;
64684;SDS011;51109;47.414;18.954;2023-06-26T09:11:11;8.38;;;6.45;;
64684;SDS011;51109;47.414;18.954;2023-06-26T09:13:37;15.35;;;7.28;;
64684;SDS011;51109;47.414;18.954;2023-06-26T09:16:06;11.25;;;7.22;;
64684;SDS011;51109;47.414;18.954;2023-06-26T09:18:33;11.68;;;6.50;;
64684;SDS011;51109;47.414;18.954;2023-06-26T09:20:59;10.70;;;6.97;;
64684;SDS011;51109;47.414;18.954;2023-06-26T09:23:25;7.97;;;6.95;;
64684;SDS011;51109;47.414;18.954;2023-06-26T09:25:51;11.95;;;6.45;;
64684;SDS011;51109;47.414;18.954;2023-06-26T09:28:18;9.15;;;7.50;;
64684;SDS011;51109;47.414;18.954;2023-06-26T09:30:47;10.32;;;6.82;;
64684;SDS011;51109;47.414;18.954;2023-06-26T09:33:16;9.15;;;6.47;;
64684;SDS011;51109;47.414;18.954;2023-06-26T09:35:43;8.13;;;7.32;;
64684;SDS011;51109;47.414;18.954;2023-06-26T09:38:10;8.05;;;6.93;;
64684;SDS011;51109;47.414;18.954;2023-06-26T09:40:37;7.93;;;7.13;;
64684;SDS011;51109;47.414;18.954;2023-06-26T09:43:06;10.90;;;6.80;;
64684;SDS011;51109;47.414;18.954;2023-06-26T09:45:33;9.57;;;7.28;;
64684;SDS011;51109;47.414;18.954;2023-06-26T09:48:02;9.05;;;6.85;;
64684;SDS011;51109;47.414;18.954;2023-06-26T09:50:29;9.30;;;6.72;;
64684;SDS011;51109;47.414;18.954;2023-06-26T09:52:57;7.95;;;7.15;;
64684;SDS011;51109;47.414;18.954;2023-06-26T09:55:23;8.25;;;6.97;;
64684;SDS011;51109;47.414;18.954;2023-06-26T09:57:50;8.00;;;7.20;;
64684;SDS011;51109;47.414;18.954;2023-06-26T10:00:17;10.82;;;7.72;;
64684;SDS011;51109;47.414;18.954;2023-06-26T10:02:44;7.90;;;7.05;;
64684;SDS011;51109;47.414;18.954;2023-06-26T10:05:09;9.27;;;7.13;;
64684;SDS011;51109;47.414;18.954;2023-06-26T10:07:35;9.73;;;7.30;;
64684;SDS011;51109;47.414;18.954;2023-06-26T10:10:03;9.80;;;7.90;;
64684;SDS011;51109;47.414;18.954;2023-06-26T10:12:32;8.20;;;7.00;;
64684;SDS011;51109;47.414;18.954;2023-06-26T10:14:59;7.32;;;6.60;;
64684;SDS011;51109;47.414;18.954;2023-06-26T10:17:30;11.32;;;7.50;;
64684;SDS011;51109;47.414;18.954;2023-06-26T10:20:02;12.18;;;6.82;;
64684;SDS011;51109;47.414;18.954;2023-06-26T10:22:29;7.63;;;6.65;;
64684;SDS011;51109;47.414;18.954;2023-06-26T10:25:00;9.60;;;6.35;;
64684;SDS011;51109;47.414;18.954;2023-06-26T10:27:29;9.45;;;6.53;;
64684;SDS011;51109;47.414;18.954;2023-06-26T10:32:29;9.88;;;7.68;;
64684;SDS011;51109;47.414;18.954;2023-06-26T10:34:56;9.40;;;6.43;;
64684;SDS011;51109;47.414;18.954;2023-06-26T10:37:40;10.38;;;7.05;;
64684;SDS011;51109;47.414;18.954;2023-06-26T10:40:10;8.50;;;6.90;;
64684;SDS011;51109;47.414;18.954;2023-06-26T10:42:37;8.48;;;6.80;;
64684;SDS011;51109;47.414;18.954;2023-06-26T10:45:14;10.38;;;7.22;;
64684;SDS011;51109;47.414;18.954;2023-06-26T10:47:42;12.90;;;7.10;;
64684;SDS011;51109;47.414;18.954;2023-06-26T10:50:23;9.88;;;6.22;;
64684;SDS011;51109;47.414;18.954;2023-06-26T10:53:07;10.68;;;6.88;;
64684;SDS011;51109;47.414;18.954;2023-06-26T10:55:42;6.88;;;6.18;;
64684;SDS011;51109;47.414;18.954;2023-06-26T11:04:04;7.38;;;6.18;;
64684;SDS011;51109;47.414;18.954;2023-06-26T11:06:31;7.60;;;6.80;;
64684;SDS011;51109;47.414;18.954;2023-06-26T11:14:18;6.85;;;6.10;;
64684;SDS011;51109;47.414;18.954;2023-06-26T11:16:44;10.13;;;6.10;;
64684;SDS011;51109;47.414;18.954;2023-06-26T11:19:11;5.75;;;5.25;;
64684;SDS011;51109;47.414;18.954;2023-06-26T11:21:38;6.30;;;5.70;;
64684;SDS011;51109;47.414;18.954;2023-06-26T11:24:04;7.55;;;5.72;;
64684;SDS011;51109;47.414;18.954;2023-06-26T11:26:37;6.68;;;5.82;;
64684;SDS011;51109;47.414;18.954;2023-06-26T11:29:07;8.07;;;5.90;;
64684;SDS011;51109;47.414;18.954;2023-06-26T11:31:34;8.18;;;5.88;;
64684;SDS011;51109;47.414;18.954;2023-06-26T11:34:03;7.25;;;6.00;;
64684;SDS011;51109;47.414;18.954;2023-06-26T11:36:31;7.63;;;5.80;;
64684;SDS011;51109;47.414;18.954;2023-06-26T11:38:57;8.88;;;5.97;;
64684;SDS011;51109;47.414;18.954;2023-06-26T11:41:26;7.13;;;5.82;;
64684;SDS011;51109;47.414;18.954;2023-06-26T11:43:53;7.53;;;5.47;;
64684;SDS011;51109;47.414;18.954;2023-06-26T11:46:20;13.13;;;5.88;;
64684;SDS011;51109;47.414;18.954;2023-06-26T11:48:47;6.60;;;5.57;;
64684;SDS011;51109;47.414;18.954;2023-06-26T11:51:16;8.02;;;5.70;;
64684;SDS011;51109;47.414;18.954;2023-06-26T11:53:43;6.70;;;5.68;;
64684;SDS011;51109;47.414;18.954;2023-06-26T11:56:10;5.93;;;5.20;;
64684;SDS011;51109;47.414;18.954;2023-06-26T11:59:22;8.13;;;5.30;;
64684;SDS011;51109;47.414;18.954;2023-06-26T12:01:26;7.03;;;5.43;;
64684;SDS011;51109;47.414;18.954;2023-06-26T12:03:58;8.90;;;5.22;;
64684;SDS011;51109;47.414;18.954;2023-06-26T12:06:27;5.15;;;4.65;;
64684;SDS011;51109;47.414;18.954;2023-06-26T12:08:54;6.07;;;5.47;;
64684;SDS011;51109;47.414;18.954;2023-06-26T12:11:21;5.68;;;5.15;;
64684;SDS011;51109;47.414;18.954;2023-06-26T12:13:48;10.25;;;5.40;;
64684;SDS011;51109;47.414;18.954;2023-06-26T12:16:15;6.03;;;5.43;;
64684;SDS011;51109;47.414;18.954;2023-06-26T12:18:41;6.78;;;6.00;;
64684;SDS011;51109;47.414;18.954;2023-06-26T12:21:07;6.50;;;5.57;;
64684;SDS011;51109;47.414;18.954;2023-06-26T12:23:33;6.38;;;5.60;;
64684;SDS011;51109;47.414;18.954;2023-06-26T12:26:19;9.75;;;5.90;;
64684;SDS011;51109;47.414;18.954;2023-06-26T12:28:45;6.50;;;5.25;;
64684;SDS011;51109;47.414;18.954;2023-06-26T12:31:14;5.30;;;4.80;;
64684;SDS011;51109;47.414;18.954;2023-06-26T12:33:42;5.28;;;4.78;;
64684;SDS011;51109;47.414;18.954;2023-06-26T12:36:15;7.10;;;5.03;;
64684;SDS011;51109;47.414;18.954;2023-06-26T12:38:45;9.75;;;5.25;;
64684;SDS011;51109;47.414;18.954;2023-06-26T12:41:12;6.55;;;4.97;;
64684;SDS011;51109;47.414;18.954;2023-06-26T12:43:41;6.70;;;5.30;;
64684;SDS011;51109;47.414;18.954;2023-06-26T12:46:07;5.53;;;4.68;;
64684;SDS011;51109;47.414;18.954;2023-06-26T12:48:40;7.90;;;4.97;;
64684;SDS011;51109;47.414;18.954;2023-06-26T12:51:17;6.15;;;5.25;;
64684;SDS011;51109;47.414;18.954;2023-06-26T12:53:43;5.65;;;4.88;;
64684;SDS011;51109;47.414;18.954;2023-06-26T12:56:09;6.38;;;5.20;;
64684;SDS011;51109;47.414;18.954;2023-06-26T12:58:38;5.55;;;5.03;;
64684;SDS011;51109;47.414;18.954;2023-06-26T13:01:04;5.63;;;5.03;;
64684;SDS011;51109;47.414;18.954;2023-06-26T13:03:40;5.78;;;4.55;;
64684;SDS011;51109;47.414;18.954;2023-06-26T13:06:06;6.47;;;4.90;;
64684;SDS011;51109;47.414;18.954;2023-06-26T13:08:35;6.40;;;4.90;;
64684;SDS011;51109;47.414;18.954;2023-06-26T13:11:02;6.03;;;4.97;;
64684;SDS011;51109;47.414;18.954;2023-06-26T13:13:28;6.35;;;5.40;;
64684;SDS011;51109;47.414;18.954;2023-06-26T13:15:54;7.05;;;4.82;;
64684;SDS011;51109;47.414;18.954;2023-06-26T13:18:20;6.28;;;4.75;;
64684;SDS011;51109;47.414;18.954;2023-06-26T13:20:46;7.38;;;4.70;;
64684;SDS011;51109;47.414;18.954;2023-06-26T13:23:12;6.18;;;4.90;;
64684;SDS011;51109;47.414;18.954;2023-06-26T13:25:37;7.47;;;5.20;;
64684;SDS011;51109;47.414;18.954;2023-06-26T13:28:03;7.47;;;5.93;;
64684;SDS011;51109;47.414;18.954;2023-06-26T13:30:29;5.50;;;5.00;;
64684;SDS011;51109;47.414;18.954;2023-06-26T13:32:55;6.93;;;5.25;;
64684;SDS011;51109;47.414;18.954;2023-06-26T13:35:21;9.02;;;4.88;;
64684;SDS011;51109;47.414;18.954;2023-06-26T13:37:47;6.10;;;4.93;;
64684;SDS011;51109;47.414;18.954;2023-06-26T13:40:13;6.45;;;4.85;;
64684;SDS011;51109;47.414;18.954;2023-06-26T13:42:38;5.07;;;4.43;;
64684;SDS011;51109;47.414;18.954;2023-06-26T13:45:05;5.53;;;4.72;;
64684;SDS011;51109;47.414;18.954;2023-06-26T13:47:31;5.60;;;5.00;;
64684;SDS011;51109;47.414;18.954;2023-06-26T13:49:59;5.22;;;4.72;;
64684;SDS011;51109;47.414;18.954;2023-06-26T13:52:25;7.15;;;4.70;;
64684;SDS011;51109;47.414;18.954;2023-06-26T13:54:51;6.82;;;4.78;;
64684;SDS011;51109;47.414;18.954;2023-06-26T13:57:17;5.40;;;4.75;;
64684;SDS011;51109;47.414;18.954;2023-06-26T13:59:44;7.15;;;4.60;;
64684;SDS011;51109;47.414;18.954;2023-06-26T14:02:10;6.35;;;4.80;;
64684;SDS011;51109;47.414;18.954;2023-06-26T14:04:36;9.48;;;4.65;;
64684;SDS011;51109;47.414;18.954;2023-06-26T14:07:02;4.75;;;4.35;;
64684;SDS011;51109;47.414;18.954;2023-06-26T14:09:28;6.72;;;4.75;;
64684;SDS011;51109;47.414;18.954;2023-06-26T14:11:54;5.07;;;4.53;;
64684;SDS011;51109;47.414;18.954;2023-06-26T14:14:20;5.45;;;4.95;;
64684;SDS011;51109;47.414;18.954;2023-06-26T14:16:46;6.28;;;4.50;;
64684;SDS011;51109;47.414;18.954;2023-06-26T14:19:14;6.78;;;4.75;;
64684;SDS011;51109;47.414;18.954;2023-06-26T14:21:42;5.78;;;4.80;;
64684;SDS011;51109;47.414;18.954;2023-06-26T14:24:08;5.25;;;4.57;;
64684;SDS011;51109;47.414;18.954;2023-06-26T14:26:34;4.95;;;4.47;;
64684;SDS011;51109;47.414;18.954;2023-06-26T14:29:02;5.43;;;4.40;;
64684;SDS011;51109;47.414;18.954;2023-06-26T14:31:28;6.57;;;4.13;;
64684;SDS011;51109;47.414;18.954;2023-06-26T14:33:54;5.47;;;4.55;;
64684;SDS011;51109;47.414;18.954;2023-06-26T14:36:20;4.38;;;3.97;;
64684;SDS011;51109;47.414;18.954;2023-06-26T14:38:45;4.97;;;4.00;;
64684;SDS011;51109;47.414;18.954;2023-06-26T14:41:11;4.35;;;3.95;;
64684;SDS011;51109;47.414;18.954;2023-06-26T14:43:40;6.32;;;4.80;;